Time;durP1;ratioP1;P1;durP2;ratioP2;P2;SDS_P1;SDS_P2;PMS_P1;PMS_P2;Temp;Humidity;BMP_temperature;BMP_pressure;BME280_temperature;BME280_humidity;BME280_pressure;Samples;Min_cycle;Max_cycle;Signal;HPM_P1;HPM_P2
2021/06/17 00:00:10;;;;;;;4.05;3.33;;;;;;;19.90;69.68;99781.73;1649003;85;20962;-70
2021/06/17 00:02:37;;;;;;;3.52;2.77;;;;;;;19.92;69.58;99791.21;1651158;85;21077;-73
2021/06/17 00:05:06;;;;;;;4.33;3.22;;;;;;;19.94;69.61;99794.45;1632782;86;21010;-77
2021/06/17 00:07:33;;;;;;;5.85;3.42;;;;;;;19.96;69.51;99799.58;1655639;86;21056;-74
2021/06/17 00:09:59;;;;;;;4.87;3.10;;;;;;;19.98;69.40;99795.45;1660081;85;21161;-76
2021/06/17 00:12:26;;;;;;;3.55;3.25;;;;;;;20.02;69.20;99797.80;1683246;85;21044;-74
2021/06/17 00:14:52;;;;;;;4.00;3.33;;;;;;;20.06;68.99;99797.17;1644922;85;21018;-74
2021/06/17 00:17:19;;;;;;;4.05;3.30;;;;;;;20.07;68.83;99789.23;1623244;86;21551;-77
2021/06/17 00:19:47;;;;;;;5.95;3.25;;;;;;;20.05;68.82;99789.53;1653555;85;20954;-78
2021/06/17 00:22:14;;;;;;;7.30;4.00;;;;;;;20.01;68.95;99785.26;1656784;85;21289;-74
2021/06/17 00:24:40;;;;;;;6.28;3.10;;;;;;;20.03;68.76;99790.42;1700092;84;21019;-73
2021/06/17 00:27:07;;;;;;;4.30;3.33;;;;;;;20.06;68.68;99791.70;1674034;84;21581;-77
2021/06/17 00:29:34;;;;;;;6.17;3.37;;;;;;;20.03;68.66;99784.95;1697954;84;20996;-74
2021/06/17 00:32:00;;;;;;;3.45;3.10;;;;;;;20.03;68.45;99774.84;1697796;84;22516;-73
2021/06/17 00:34:26;;;;;;;3.20;2.85;;;;;;;20.00;68.56;99771.34;1697617;84;21129;-73
2021/06/17 00:36:54;;;;;;;6.30;4.10;;;;;;;20.02;68.56;99777.88;1658131;85;21030;-79
2021/06/17 00:39:21;;;;;;;7.17;3.87;;;;;;;19.97;68.57;99777.44;1675113;85;20964;-75
2021/06/17 00:41:47;;;;;;;6.08;3.30;;;;;;;19.92;68.82;99772.09;1705063;84;20975;-74
2021/06/17 00:44:14;;;;;;;6.78;4.12;;;;;;;19.91;68.70;99780.59;1682624;84;21114;-80
2021/06/17 00:46:40;;;;;;;4.37;3.62;;;;;;;19.92;68.64;99790.41;1675790;84;21094;-75
2021/06/17 00:49:07;;;;;;;8.20;3.22;;;;;;;19.95;68.66;99791.17;1697038;84;21631;-77
2021/06/17 00:51:34;;;;;;;5.12;3.65;;;;;;;19.95;68.61;99797.41;1688700;84;20987;-74
2021/06/17 00:54:01;;;;;;;9.95;3.98;;;;;;;19.98;68.60;99800.09;1705595;84;21153;-74
2021/06/17 00:56:27;;;;;;;6.60;3.83;;;;;;;20.02;68.44;99796.98;1704133;83;21000;-74
2021/06/17 00:58:54;;;;;;;4.28;3.20;;;;;;;19.91;68.60;99797.78;1684919;83;24791;-76
2021/06/17 01:01:20;;;;;;;4.55;3.70;;;;;;;19.88;68.75;99793.50;1699016;84;21574;-76
2021/06/17 01:03:47;;;;;;;7.72;4.08;;;;;;;19.88;68.80;99801.70;1647093;85;21067;-73
2021/06/17 01:06:14;;;;;;;5.80;3.92;;;;;;;19.86;68.81;99799.27;1645739;86;21360;-75
2021/06/17 01:09:07;;;;;;;5.67;3.72;;;;;;;19.83;68.88;99798.52;1692138;84;21039;-73
2021/06/17 01:12:07;;;;;;;4.92;3.00;;;;;;;19.81;69.22;99806.75;1664976;84;21571;-74
2021/06/17 01:14:41;;;;;;;3.45;3.15;;;;;;;19.80;69.04;99801.08;1675621;84;20999;-73
2021/06/17 01:17:11;;;;;;;12.75;4.92;;;;;;;19.80;69.08;99793.69;1675400;84;21021;-74
2021/06/17 01:20:07;;;;;;;7.97;4.10;;;;;;;19.77;69.25;99793.48;1668766;85;21044;-74
2021/06/17 01:23:13;;;;;;;7.40;4.05;;;;;;;19.72;69.34;99791.67;1656130;86;21014;-74
2021/06/17 01:26:29;;;;;;;4.25;3.50;;;;;;;19.65;69.63;99794.03;1655779;85;21044;-74
2021/06/17 01:28:55;;;;;;;4.75;4.25;;;;;;;19.59;69.84;99791.16;1677746;82;21557;-75
2021/06/17 01:31:25;;;;;;;4.22;3.83;;;;;;;19.55;70.07;99790.97;1709842;82;20987;-76
2021/06/17 01:33:53;;;;;;;7.17;4.45;;;;;;;19.56;70.17;99813.61;1716045;82;21136;-76
2021/06/17 01:36:27;;;;;;;5.30;3.42;;;;;;;19.55;70.23;99814.17;1722189;81;20925;-75
2021/06/17 01:38:57;;;;;;;4.28;3.50;;;;;;;19.56;70.26;99810.88;1669438;84;21535;-74
2021/06/17 01:41:26;;;;;;;3.72;3.33;;;;;;;19.55;70.33;99814.17;1693786;82;21617;-75
2021/06/17 01:43:52;;;;;;;3.87;3.37;;;;;;;19.57;70.45;99810.55;1703743;83;21727;-74
2021/06/17 01:46:19;;;;;;;4.80;4.08;;;;;;;19.58;70.42;99820.92;1694960;84;21026;-73
2021/06/17 01:48:45;;;;;;;4.08;3.30;;;;;;;19.57;70.42;99828.30;1691156;84;21032;-73
2021/06/17 01:51:12;;;;;;;4.53;3.47;;;;;;;19.55;70.62;99823.72;1647520;85;21108;-75
2021/06/17 01:53:38;;;;;;;4.85;4.28;;;;;;;19.53;70.72;99827.84;1703249;84;21527;-73
2021/06/17 01:56:05;;;;;;;4.85;4.08;;;;;;;19.52;70.70;99837.95;1702914;84;21074;-74
2021/06/17 01:58:32;;;;;;;11.75;3.65;;;;;;;19.49;70.94;99841.30;1709895;82;21031;-73
2021/06/17 02:00:59;;;;;;;8.40;4.22;;;;;;;19.49;71.03;99843.22;1705992;84;21072;-76
2021/06/17 02:03:26;;;;;;;4.45;3.70;;;;;;;19.46;71.14;99838.38;1702753;83;21829;-75
2021/06/17 02:05:52;;;;;;;4.65;3.40;;;;;;;19.45;71.25;99840.30;1699675;82;20961;-75
2021/06/17 02:08:19;;;;;;;5.70;4.05;;;;;;;19.46;71.33;99847.92;1694186;84;20996;-74
2021/06/17 02:10:46;;;;;;;4.72;4.08;;;;;;;19.44;71.42;99848.22;1694491;84;21506;-74
2021/06/17 02:13:15;;;;;;;6.58;3.65;;;;;;;19.42;71.48;99862.71;1698017;83;21020;-75
2021/06/17 02:15:46;;;;;;;7.65;3.72;;;;;;;19.41;71.67;99861.64;1692798;84;20987;-74
2021/06/17 02:18:15;;;;;;;4.33;3.20;;;;;;;19.40;71.85;99861.38;1716960;81;21569;-73
2021/06/17 02:20:41;;;;;;;5.22;4.72;;;;;;;19.41;71.96;99876.64;1676193;85;20943;-74
2021/06/17 02:23:12;;;;;;;7.17;4.20;;;;;;;19.35;72.23;99873.76;1689316;84;21111;-74
2021/06/17 02:25:39;;;;;;;5.15;4.35;;;;;;;19.31;72.46;99869.47;1682194;85;21591;-74
2021/06/17 02:28:11;;;;;;;11.97;4.35;;;;;;;19.32;72.44;99864.27;1681138;84;21115;-74
2021/06/17 02:30:37;;;;;;;4.05;3.25;;;;;;;19.34;72.59;99861.22;1699586;84;21032;-74
2021/06/17 02:33:06;;;;;;;5.80;3.90;;;;;;;19.32;72.82;99863.47;1714195;83;20932;-73
2021/06/17 02:35:33;;;;;;;6.85;3.65;;;;;;;19.29;72.86;99865.41;1700692;82;21063;-74
2021/06/17 02:38:02;;;;;;;4.58;3.87;;;;;;;19.23;73.25;99868.01;1731109;82;21074;-74
2021/06/17 02:40:30;;;;;;;7.60;4.35;;;;;;;19.18;73.79;99870.28;1713898;82;21056;-75
2021/06/17 02:42:56;;;;;;;4.08;3.33;;;;;;;19.20;73.78;99871.32;1701284;82;21011;-74
2021/06/17 02:45:27;;;;;;;7.10;4.30;;;;;;;19.20;74.06;99863.95;1740534;82;21098;-74
2021/06/17 02:47:54;;;;;;;6.58;4.28;;;;;;;19.18;74.37;99868.11;1717601;82;21085;-75
2021/06/17 02:50:21;;;;;;;4.30;3.50;;;;;;;19.18;74.26;99859.92;1717787;82;20990;-74
2021/06/17 02:52:47;;;;;;;9.20;4.58;;;;;;;19.16;74.48;99854.77;1717336;82;21104;-74
2021/06/17 02:55:14;;;;;;;6.05;3.77;;;;;;;19.19;74.42;99854.15;1721097;82;21018;-75
2021/06/17 02:58:24;;;;;;;10.30;5.75;;;;;;;19.22;74.49;99855.48;1707684;82;21078;-74
2021/06/17 03:01:11;;;;;;;3.50;3.20;;;;;;;19.22;74.74;99856.84;1713120;82;21191;-74
2021/06/17 03:03:44;;;;;;;3.83;3.25;;;;;;;19.22;74.89;99858.20;1731600;82;21067;-73
2021/06/17 03:06:22;;;;;;;8.53;4.87;;;;;;;19.21;75.31;99847.03;1740760;82;22252;-73
2021/06/17 03:08:56;;;;;;;5.92;3.45;;;;;;;19.18;75.45;99849.25;1709484;82;21007;-73
2021/06/17 03:11:25;;;;;;;5.78;3.87;;;;;;;19.21;75.58;99851.94;1724893;82;21033;-72
2021/06/17 03:13:55;;;;;;;4.25;3.80;;;;;;;19.22;75.73;99858.20;1712329;82;21031;-71
2021/06/17 03:16:29;;;;;;;4.12;3.72;;;;;;;19.25;75.83;99862.49;1733191;82;21089;-73
2021/06/17 03:18:58;;;;;;;3.62;3.33;;;;;;;19.27;75.78;99867.10;1717493;82;21089;-75
2021/06/17 03:21:24;;;;;;;6.90;3.47;;;;;;;19.32;75.77;99879.83;1717758;82;20931;-73
2021/06/17 03:23:51;;;;;;;4.87;3.52;;;;;;;19.35;75.77;99880.58;1717935;82;20987;-76
2021/06/17 03:26:18;;;;;;;5.40;4.10;;;;;;;19.38;75.62;99887.59;1734373;81;21011;-74
2021/06/17 03:28:44;;;;;;;4.58;4.03;;;;;;;19.42;75.50;99892.72;1723175;83;21043;-74
2021/06/17 03:31:13;;;;;;;5.05;3.83;;;;;;;19.48;75.39;99895.60;1723059;83;21114;-74
2021/06/17 03:33:41;;;;;;;7.28;4.80;;;;;;;19.51;75.30;99900.47;1721795;83;21547;-75
2021/06/17 03:36:08;;;;;;;4.47;3.45;;;;;;;19.54;75.24;99894.95;1702204;81;20944;-78
2021/06/17 03:38:38;;;;;;;4.92;3.55;;;;;;;19.55;75.32;99901.48;1672583;84;21102;-77
2021/06/17 03:41:05;;;;;;;5.42;3.80;;;;;;;19.56;75.39;99887.28;1626313;87;21583;-76
2021/06/17 03:43:34;;;;;;;4.83;3.95;;;;;;;19.61;75.25;99904.11;1687784;83;21091;-77
2021/06/17 03:46:00;;;;;;;5.00;4.25;;;;;;;19.64;75.25;99897.47;1686727;83;20935;-77
2021/06/17 03:48:27;;;;;;;5.47;4.53;;;;;;;19.66;75.18;99899.36;1683535;84;21009;-77
2021/06/17 03:50:53;;;;;;;4.85;3.62;;;;;;;19.70;75.14;99912.64;1723226;83;20960;-78
2021/06/17 03:53:20;;;;;;;9.05;4.42;;;;;;;19.76;75.17;99913.34;1682856;84;21036;-77
2021/06/17 03:55:48;;;;;;;11.75;3.83;;;;;;;19.78;75.02;99913.83;1683585;84;21113;-77
2021/06/17 03:58:15;;;;;;;6.97;4.47;;;;;;;19.82;74.99;99913.47;1674998;84;20948;-77
2021/06/17 04:00:42;;;;;;;5.60;4.03;;;;;;;19.86;74.96;99919.38;1692843;84;21545;-78
2021/06/17 04:03:10;;;;;;;12.58;4.80;;;;;;;19.91;74.80;99921.19;1692017;84;21129;-76
2021/06/17 04:05:37;;;;;;;5.70;4.47;;;;;;;19.96;74.57;99923.25;1671508;84;21572;-77
2021/06/17 04:08:07;;;;;;;3.45;3.15;;;;;;;19.99;74.33;99920.48;1686492;83;21654;-79
2021/06/17 04:10:33;;;;;;;3.58;3.27;;;;;;;20.01;74.40;99923.14;1684520;82;21052;-78
2021/06/17 04:13:00;;;;;;;7.08;3.65;;;;;;;20.03;74.42;99922.30;1725578;82;21309;-76
2021/06/17 04:15:27;;;;;;;7.28;4.58;;;;;;;20.09;74.40;99918.09;1704404;84;21102;-75
2021/06/17 04:17:58;;;;;;;13.25;8.60;;;;;;;20.09;74.27;99920.27;1704589;84;21051;-72
2021/06/17 04:20:28;;;;;;;5.67;4.30;;;;;;;20.13;74.23;99919.89;1698566;83;21091;-74
2021/06/17 04:22:56;;;;;;;8.83;4.78;;;;;;;20.17;74.28;99917.35;1716432;83;20963;-75
2021/06/17 04:25:22;;;;;;;4.25;3.80;;;;;;;20.20;74.12;99920.27;1657620;84;21122;-73
2021/06/17 04:27:51;;;;;;;8.63;4.55;;;;;;;20.25;74.13;99922.08;1679612;84;21539;-75
2021/06/17 04:30:18;;;;;;;5.15;3.45;;;;;;;20.31;73.87;99924.98;1704060;84;21113;-74
2021/06/17 04:32:47;;;;;;;4.70;4.00;;;;;;;20.34;73.87;99922.44;1702786;84;21128;-73
2021/06/17 04:35:15;;;;;;;8.35;4.97;;;;;;;20.34;73.64;99922.44;1705490;84;20953;-75
2021/06/17 04:37:42;;;;;;;10.72;4.20;;;;;;;20.37;73.72;99926.48;1705485;84;21046;-73
2021/06/17 04:40:09;;;;;;;5.78;4.10;;;;;;;20.42;73.92;99929.10;1709345;83;21044;-73
2021/06/17 04:42:36;;;;;;;5.70;4.22;;;;;;;20.49;73.75;99935.48;1660680;83;20998;-72
2021/06/17 04:45:03;;;;;;;5.50;4.00;;;;;;;20.53;73.57;99933.19;1657657;85;21292;-73
2021/06/17 04:47:29;;;;;;;7.40;4.25;;;;;;;20.60;73.51;99930.84;1683408;85;21037;-73
2021/06/17 04:49:56;;;;;;;4.65;3.72;;;;;;;20.72;72.78;99935.77;1683281;84;21340;-73
2021/06/17 04:52:52;;;;;;;6.15;3.75;;;;;;;20.72;72.78;99935.77;1683259;84;21031;-73
2021/06/17 04:55:19;;;;;;;9.98;3.98;;;;;;;20.75;72.85;99935.95;1664510;85;21523;-74
2021/06/17 04:57:45;;;;;;;6.90;4.33;;;;;;;20.77;72.83;99936.98;1683652;85;21102;-74
2021/06/17 05:00:13;;;;;;;7.75;5.03;;;;;;;20.82;72.65;99940.95;1683298;85;20955;-76
2021/06/17 05:02:40;;;;;;;5.50;3.72;;;;;;;20.82;72.65;99940.95;1664251;83;21090;-75
2021/06/17 05:05:08;;;;;;;8.05;4.50;;;;;;;20.86;72.76;99946.86;1657146;85;21062;-76
2021/06/17 05:12:49;;;;;;;3.20;2.90;;;;;;;21.03;72.21;99949.47;1735401;82;22056;-74
2021/06/17 05:15:15;;;;;;;7.97;3.58;;;;;;;21.07;72.03;99955.36;1695756;84;21596;-75
2021/06/17 05:17:42;;;;;;;5.20;3.83;;;;;;;21.12;72.31;99959.34;1657305;85;21554;-74
2021/06/17 05:20:10;;;;;;;5.28;3.37;;;;;;;21.21;72.18;99964.33;1695606;84;21076;-75
2021/06/17 05:22:37;;;;;;;4.80;3.75;;;;;;;21.30;71.99;99972.58;1656924;85;21315;-74
2021/06/17 05:25:04;;;;;;;6.83;4.92;;;;;;;21.37;71.54;99982.53;1709318;83;20916;-74
2021/06/17 05:27:31;;;;;;;6.70;4.20;;;;;;;21.42;71.48;99987.05;1711980;83;20982;-74
2021/06/17 05:29:57;;;;;;;4.50;3.85;;;;;;;21.46;71.13;99984.74;1711913;83;21067;-75
2021/06/17 05:32:24;;;;;;;3.60;3.10;;;;;;;21.47;70.84;99994.58;1685301;83;20971;-75
2021/06/17 05:34:51;;;;;;;6.37;4.28;;;;;;;21.49;70.97;99984.10;1684725;83;21132;-74
2021/06/17 05:37:18;;;;;;;10.95;2.80;;;;;;;21.54;71.01;99993.55;1657382;85;20992;-74
2021/06/17 05:39:45;;;;;;;7.35;3.58;;;;;;;21.64;71.09;99994.64;1683249;84;21052;-74
2021/06/17 05:42:11;;;;;;;9.25;4.72;;;;;;;21.67;70.73;99991.86;1683310;85;21517;-74
2021/06/17 05:44:38;;;;;;;4.40;3.98;;;;;;;21.70;70.74;99982.44;1688927;83;21034;-73
2021/06/17 05:47:04;;;;;;;10.95;4.05;;;;;;;21.74;70.70;99984.78;1711816;83;21144;-73
2021/06/17 05:49:31;;;;;;;7.78;4.50;;;;;;;21.78;70.68;99995.09;1685324;83;20919;-74
2021/06/17 05:51:58;;;;;;;4.85;4.35;;;;;;;21.82;70.55;99996.91;1711753;83;20991;-75
2021/06/17 05:54:25;;;;;;;4.12;3.62;;;;;;;21.88;70.57;100000.28;1662524;83;20987;-74
2021/06/17 05:56:51;;;;;;;4.15;3.75;;;;;;;21.94;70.33;100002.61;1685702;83;21040;-77
2021/06/17 05:59:19;;;;;;;5.97;3.98;;;;;;;22.01;70.13;99998.05;1711624;83;21078;-75
2021/06/17 06:01:46;;;;;;;4.97;3.92;;;;;;;22.07;69.79;100003.59;1711671;83;21061;-75
2021/06/17 06:04:13;;;;;;;4.35;3.95;;;;;;;22.12;69.70;100004.83;1727367;82;20955;-75
2021/06/17 06:06:39;;;;;;;11.88;3.77;;;;;;;22.18;69.69;100003.00;1678587;85;21020;-75
2021/06/17 06:09:06;;;;;;;5.75;4.03;;;;;;;22.24;69.59;100009.14;1682045;85;21014;-76
2021/06/17 06:11:32;;;;;;;11.90;5.30;;;;;;;22.27;69.17;100015.34;1682280;85;21112;-74
2021/06/17 06:13:59;;;;;;;8.20;5.05;;;;;;;22.30;68.97;100009.80;1695641;83;20999;-75
2021/06/17 06:16:28;;;;;;;6.30;5.10;;;;;;;22.31;68.58;100012.76;1664495;83;20950;-74
2021/06/17 06:18:55;;;;;;;5.00;3.95;;;;;;;22.36;68.72;100013.98;1687994;83;20993;-74
2021/06/17 06:21:22;;;;;;;8.03;4.35;;;;;;;22.46;69.03;100015.05;1688113;83;21055;-74
2021/06/17 06:23:50;;;;;;;8.08;4.50;;;;;;;22.56;68.62;100016.11;1696314;82;21071;-76
2021/06/17 06:26:17;;;;;;;7.40;4.00;;;;;;;22.59;68.16;100020.94;1742058;82;20994;-74
2021/06/17 06:28:43;;;;;;;6.95;4.00;;;;;;;22.61;68.07;100008.53;1737718;82;21116;-75
2021/06/17 06:31:10;;;;;;;10.13;3.95;;;;;;;22.63;67.54;100013.70;1690409;83;21498;-73
2021/06/17 06:33:37;;;;;;;3.40;3.10;;;;;;;22.65;67.87;100007.88;1712615;83;20978;-73
2021/06/17 06:36:04;;;;;;;5.67;3.52;;;;;;;22.69;67.96;100010.22;1695500;83;21118;-79
2021/06/17 06:38:32;;;;;;;7.60;3.60;;;;;;;22.73;67.81;100014.80;1682517;85;20968;-73
2021/06/17 06:40:59;;;;;;;5.33;3.85;;;;;;;22.74;67.99;100008.16;1686079;82;21103;-73
2021/06/17 06:43:26;;;;;;;10.75;4.05;;;;;;;22.81;67.73;100003.00;1720615;81;21565;-74
2021/06/17 06:45:53;;;;;;;4.40;4.00;;;;;;;22.92;67.50;100015.27;1767963;81;21038;-75
2021/06/17 06:48:20;;;;;;;5.47;3.77;;;;;;;23.02;67.13;100018.25;1742048;81;21333;-74
2021/06/17 06:50:48;;;;;;;7.37;3.12;;;;;;;23.10;66.58;100011.94;1740648;81;20995;-75
2021/06/17 06:53:15;;;;;;;3.87;3.30;;;;;;;23.17;65.75;100017.72;1742122;81;21572;-72
2021/06/17 06:55:41;;;;;;;5.25;3.80;;;;;;;23.22;65.28;100013.44;1739393;81;21065;-74
2021/06/17 06:58:08;;;;;;;4.35;3.55;;;;;;;23.26;65.09;100018.51;1702447;82;20999;-74
2021/06/17 07:00:38;;;;;;;5.70;3.95;;;;;;;23.29;65.05;100010.20;1712262;82;21055;-72
2021/06/17 07:03:03;;;;;;;10.32;4.03;;;;;;;23.33;65.27;100017.45;1752649;81;20963;-73
2021/06/17 07:05:29;;;;;;;5.10;3.62;;;;;;;23.40;65.18;100021.87;1767258;81;21567;-72
2021/06/17 07:07:56;;;;;;;4.97;3.45;;;;;;;23.46;64.90;100019.79;1748665;81;21292;-72
2021/06/17 07:10:23;;;;;;;8.13;3.85;;;;;;;23.54;65.01;100025.03;1737232;82;21499;-73
2021/06/17 07:12:49;;;;;;;3.70;3.40;;;;;;;23.62;64.87;100027.75;1731388;82;21692;-73
2021/06/17 07:15:17;;;;;;;6.78;3.37;;;;;;;23.70;63.90;100023.34;1725631;83;20996;-74
2021/06/17 07:17:43;;;;;;;3.20;2.92;;;;;;;23.74;63.56;100030.59;1704817;82;21500;-74
2021/06/17 07:20:10;;;;;;;4.22;3.85;;;;;;;23.78;63.19;100028.83;1712245;82;21116;-73
2021/06/17 07:22:37;;;;;;;5.85;4.55;;;;;;;23.79;63.62;100033.73;1730800;81;21000;-74
2021/06/17 07:25:04;;;;;;;8.78;4.50;;;;;;;23.83;63.70;100032.77;1668844;85;21074;-76
2021/06/17 07:27:31;;;;;;;4.25;3.55;;;;;;;23.92;63.93;100035.47;1703979;82;20956;-74
2021/06/17 07:29:58;;;;;;;9.25;3.30;;;;;;;24.00;63.71;100036.56;1726775;82;21000;-74
2021/06/17 07:32:24;;;;;;;10.23;6.33;;;;;;;24.07;63.76;100041.80;1726121;82;21568;-74
2021/06/17 07:34:53;;;;;;;10.68;3.92;;;;;;;24.14;63.50;100046.75;1735145;82;20988;-72
2021/06/17 07:37:19;;;;;;;4.83;3.27;;;;;;;24.22;63.25;100046.73;1727502;82;21501;-74
2021/06/17 07:39:45;;;;;;;4.67;3.42;;;;;;;24.30;63.06;100045.90;1725794;82;21019;-74
2021/06/17 07:42:12;;;;;;;6.45;4.12;;;;;;;24.37;62.12;100042.61;1708703;82;20948;-74
2021/06/17 07:44:39;;;;;;;10.63;3.92;;;;;;;24.41;62.11;100044.95;1731502;81;21026;-77
2021/06/17 07:47:07;;;;;;;7.28;4.25;;;;;;;24.43;61.85;100046.78;1686385;81;21059;-76
2021/06/17 07:49:33;;;;;;;4.37;3.75;;;;;;;24.46;62.01;100045.33;1688364;84;21089;-76
2021/06/17 07:52:00;;;;;;;4.05;3.65;;;;;;;24.53;62.10;100048.34;1698282;81;21037;-77
2021/06/17 07:54:26;;;;;;;6.90;3.55;;;;;;;24.60;61.93;100042.56;1762163;81;21525;-75
2021/06/17 07:56:56;;;;;;;8.60;4.05;;;;;;;24.65;61.81;100044.30;1758794;81;21051;-79
2021/06/17 07:59:23;;;;;;;6.70;4.00;;;;;;;24.70;61.77;100052.33;1717124;82;21076;-76
2021/06/17 08:01:52;;;;;;;14.40;4.85;;;;;;;24.77;61.48;100042.98;1714409;82;21320;-77
2021/06/17 08:04:19;;;;;;;10.98;3.77;;;;;;;24.84;61.44;100041.89;1735904;82;21008;-78
2021/06/17 08:06:46;;;;;;;4.20;3.58;;;;;;;24.88;61.31;100051.11;1735449;82;20983;-73
2021/06/17 08:09:22;;;;;;;12.47;5.08;;;;;;;24.92;60.95;100049.29;1735870;81;21523;-73
2021/06/17 08:11:42;;;;;;;7.12;4.53;;;;;;;24.94;60.44;100042.08;1682408;84;21516;-72
2021/06/17 08:14:09;;;;;;;6.60;4.22;;;;;;;24.96;60.42;100051.59;1704973;84;21109;-72
2021/06/17 08:16:37;;;;;;;4.22;3.60;;;;;;;25.00;60.13;100054.47;1733472;82;21057;-73
2021/06/17 08:19:03;;;;;;;5.53;3.77;;;;;;;25.06;59.90;100047.06;1714609;82;21563;-73
2021/06/17 08:21:31;;;;;;;7.97;5.25;;;;;;;25.13;59.04;100058.91;1735553;82;21083;-73
2021/06/17 08:23:58;;;;;;;4.78;3.75;;;;;;;25.15;59.25;100055.23;1735639;82;21543;-74
2021/06/17 08:26:24;;;;;;;7.05;4.33;;;;;;;25.23;58.80;100059.84;1714455;82;21101;-74
2021/06/17 08:28:51;;;;;;;3.87;3.42;;;;;;;25.28;58.87;100069.27;1735416;82;21029;-75
2021/06/17 08:31:18;;;;;;;6.80;3.77;;;;;;;25.37;58.82;100066.46;1735507;82;21000;-76
2021/06/17 08:33:44;;;;;;;4.47;3.35;;;;;;;25.45;57.56;100066.37;1735491;82;21582;-76
2021/06/17 08:36:11;;;;;;;6.78;3.87;;;;;;;25.52;57.32;100062.47;1710467;82;21667;-75
2021/06/17 08:38:40;;;;;;;4.10;3.70;;;;;;;25.55;57.58;100063.22;1704663;84;22537;-76
2021/06/17 08:41:06;;;;;;;6.55;3.85;;;;;;;25.63;57.10;100062.88;1684331;84;20963;-74
2021/06/17 08:43:33;;;;;;;11.53;3.62;;;;;;;25.72;56.15;100053.94;1704822;84;21031;-74
2021/06/17 08:46:01;;;;;;;5.47;3.50;;;;;;;25.81;56.68;100053.83;1642322;83;20974;-74
2021/06/17 08:48:27;;;;;;;5.30;3.47;;;;;;;25.91;55.73;100055.57;1719023;82;21015;-74
2021/06/17 08:50:55;;;;;;;5.80;4.00;;;;;;;25.92;55.00;100046.16;1735161;82;21513;-83
2021/06/17 08:53:22;;;;;;;8.25;3.02;;;;;;;25.89;54.67;100066.16;1711945;82;21359;-76
2021/06/17 08:55:49;;;;;;;6.08;4.22;;;;;;;25.89;55.31;100066.73;1735192;82;21035;-76
2021/06/17 08:58:15;;;;;;;4.05;3.50;;;;;;;25.96;55.31;100069.70;1735170;82;21520;-75
2021/06/17 09:00:46;;;;;;;7.03;3.75;;;;;;;26.00;54.29;100061.78;1734334;82;21032;-76
2021/06/17 09:03:17;;;;;;;4.00;3.22;;;;;;;26.03;54.02;100067.20;1735017;82;21219;-82
2021/06/17 09:05:52;;;;;;;5.72;3.90;;;;;;;26.06;53.61;100060.98;1711571;82;21023;-80
2021/06/17 09:08:30;;;;;;;4.10;2.95;;;;;;;26.09;53.92;100066.40;1711940;82;21019;-77
2021/06/17 09:10:57;;;;;;;5.62;3.77;;;;;;;26.21;54.31;100063.63;1734901;82;21563;-73
2021/06/17 09:13:32;;;;;;;3.35;2.62;;;;;;;26.34;53.69;100072.95;1735042;82;21067;-76
2021/06/17 09:15:59;;;;;;;5.85;4.05;;;;;;;26.47;53.84;100071.02;1712221;82;21068;-74
2021/06/17 09:18:34;;;;;;;4.45;4.05;;;;;;;26.59;53.27;100071.55;1732615;82;21029;-73
2021/06/17 09:21:07;;;;;;;7.03;3.55;;;;;;;26.66;52.70;100064.32;1711954;82;21074;-73
2021/06/17 09:23:41;;;;;;;3.60;3.30;;;;;;;26.69;52.64;100072.46;1712040;82;21075;-77
2021/06/17 09:26:20;;;;;;;8.78;5.92;;;;;;;26.73;52.18;100054.05;1735844;82;21027;-80
2021/06/17 09:29:04;;;;;;;6.40;3.90;;;;;;;26.73;52.16;100056.81;1737270;82;21583;-77
2021/06/17 09:31:37;;;;;;;7.37;3.43;;;;;;;26.78;51.99;100056.00;1736931;82;20964;-82
2021/06/17 09:34:06;;;;;;;;;;;;;;;26.79;51.53;100056.23;1686918;82;20948;-74
2021/06/17 09:36:34;;;;;;;7.60;4.28;;;;;;;26.78;51.50;100067.61;1681964;84;20178;-76
2021/06/17 09:39:10;;;;;;;6.30;4.15;;;;;;;26.85;52.22;100058.17;1708902;82;21599;-82
2021/06/17 09:41:39;;;;;;;10.30;3.83;;;;;;;26.93;51.78;100063.34;1735109;82;21267;-72
2021/06/17 09:44:29;;;;;;;3.72;3.20;;;;;;;27.01;51.62;100052.73;1737418;82;21078;-77
2021/06/17 09:47:22;;;;;;;6.72;3.52;;;;;;;27.11;50.61;100063.27;1712099;82;21106;-78
2021/06/17 09:49:51;;;;;;;6.10;3.75;;;;;;;27.18;50.60;100062.11;1670974;84;20969;-77
2021/06/17 09:52:18;;;;;;;5.15;4.60;;;;;;;27.23;50.27;100061.29;1726165;82;21003;-78
2021/06/17 09:54:46;;;;;;;3.70;3.12;;;;;;;27.29;49.62;100062.62;1764555;81;21084;-76
2021/06/17 09:57:18;;;;;;;3.92;3.60;;;;;;;27.37;49.87;100056.73;1741677;81;21056;-77
2021/06/17 09:59:54;;;;;;;5.03;3.27;;;;;;;27.44;49.50;100054.72;1715011;82;21626;-75
2021/06/17 10:02:31;;;;;;;4.40;3.83;;;;;;;27.52;49.43;100046.89;1701507;83;21616;-74
2021/06/17 10:05:18;;;;;;;7.42;4.05;;;;;;;27.59;49.17;100053.41;1712450;82;21032;-74
2021/06/17 10:07:44;;;;;;;4.33;3.92;;;;;;;27.65;48.17;100050.61;1683268;84;21058;-77
2021/06/17 10:10:12;;;;;;;6.53;3.75;;;;;;;27.66;47.89;100048.08;1710298;82;21044;-75
2021/06/17 10:12:41;;;;;;;5.62;4.10;;;;;;;27.67;47.86;100044.73;1746313;81;21508;-78
2021/06/17 10:15:11;;;;;;;4.90;3.92;;;;;;;27.63;48.02;100045.20;1764898;81;20951;-78
2021/06/17 10:17:38;;;;;;;6.42;4.03;;;;;;;27.57;47.94;100043.87;1734442;81;20990;-77
2021/06/17 10:20:08;;;;;;;5.67;3.70;;;;;;;27.63;47.95;100046.00;1748695;81;21501;-78
2021/06/17 10:22:37;;;;;;;10.65;3.33;;;;;;;27.72;48.08;100059.07;1722930;82;20942;-79
2021/06/17 10:25:08;;;;;;;5.03;3.72;;;;;;;27.83;48.23;100051.63;1692088;82;20927;-80
2021/06/17 10:27:38;;;;;;;11.38;3.80;;;;;;;27.93;48.09;100042.80;1711555;82;21007;-76
2021/06/17 10:30:07;;;;;;;3.62;3.15;;;;;;;27.98;47.52;100038.39;1748561;81;20968;-82
2021/06/17 10:32:38;;;;;;;6.83;3.50;;;;;;;28.03;47.44;100036.73;1725759;82;21282;-77
2021/06/17 10:35:05;;;;;;;3.35;3.05;;;;;;;28.01;46.94;100037.09;1713531;82;21477;-74
2021/06/17 10:37:56;;;;;;;6.42;3.00;;;;;;;27.97;46.63;100040.92;1748270;82;21079;-71
2021/06/17 10:40:29;;;;;;;7.75;3.40;;;;;;;27.83;46.90;100033.66;1747788;81;21100;-73
2021/06/17 10:42:55;;;;;;;7.53;4.50;;;;;;;27.68;47.12;100042.98;1740997;81;21458;-75
2021/06/17 10:45:45;;;;;;;4.53;4.10;;;;;;;27.74;47.22;100040.75;1654161;85;21109;-75
2021/06/17 10:48:14;;;;;;;12.00;4.87;;;;;;;27.75;47.03;100034.88;1674496;83;21573;-76
2021/06/17 10:50:54;;;;;;;12.15;4.62;;;;;;;27.81;47.01;100042.33;1719972;82;20997;-72
2021/06/17 10:53:33;;;;;;;10.48;4.35;;;;;;;27.87;47.02;100046.41;1688742;83;21095;-72
2021/06/17 10:56:19;;;;;;;8.80;3.05;;;;;;;28.05;46.53;100033.05;1696608;83;21044;-74
2021/06/17 10:58:51;;;;;;;9.28;4.30;;;;;;;28.15;45.57;100033.31;1687893;84;21150;-75
2021/06/17 11:01:34;;;;;;;6.90;3.20;;;;;;;28.24;46.10;100034.52;1688200;84;20984;-74
2021/06/17 11:04:31;;;;;;;8.50;3.35;;;;;;;28.30;45.73;100025.38;1706364;83;21004;-74
2021/06/17 11:07:10;;;;;;;7.58;3.80;;;;;;;28.25;45.76;100033.95;1684450;84;21023;-75
2021/06/17 11:09:44;;;;;;;4.95;3.67;;;;;;;28.23;46.25;100030.73;1683322;84;21495;-74
2021/06/17 11:12:24;;;;;;;7.20;3.27;;;;;;;28.31;46.40;100029.14;1705965;84;21113;-74
2021/06/17 11:14:54;;;;;;;6.62;3.10;;;;;;;28.47;46.08;100029.91;1705540;84;21094;-78
2021/06/17 11:17:33;;;;;;;9.83;3.27;;;;;;;28.57;45.41;100031.31;1703703;83;21033;-76
2021/06/17 11:20:24;;;;;;;9.05;3.75;;;;;;;28.52;45.58;100025.48;1718342;83;21576;-83
2021/06/17 11:22:57;;;;;;;6.72;2.98;;;;;;;28.61;45.88;100028.84;1716873;83;21099;-81
2021/06/17 11:25:22;;;;;;;4.87;3.98;;;;;;;28.71;45.33;100008.67;1716908;82;21775;-81
2021/06/17 11:28:01;;;;;;;6.83;3.42;;;;;;;28.75;45.71;100019.27;1678468;83;21030;-80
2021/06/17 11:30:53;;;;;;;4.92;3.60;;;;;;;28.85;45.52;100006.23;1701173;83;21617;-82
2021/06/17 11:33:33;;;;;;;6.70;3.17;;;;;;;28.97;45.42;100008.25;1707984;83;21512;-78
2021/06/17 11:36:03;;;;;;;4.28;3.85;;;;;;;29.03;44.66;100009.56;1708187;84;21042;-77
2021/06/17 11:38:35;;;;;;;3.67;3.37;;;;;;;29.03;44.77;100010.15;1707586;84;21079;-75
2021/06/17 11:41:16;;;;;;;5.70;3.00;;;;;;;29.07;44.38;100002.70;1690713;82;21043;-74
2021/06/17 11:43:42;;;;;;;7.85;3.87;;;;;;;29.10;44.27;100001.19;1737328;82;21547;-73
2021/06/17 11:46:25;;;;;;;5.33;3.50;;;;;;;29.04;44.64;99995.95;1738867;82;20951;-73